Time;durP1;ratioP1;P1;durP2;ratioP2;P2;SDS_P1;SDS_P2;PMS_P1;PMS_P2;Temp;Humidity;BMP_temperature;BMP_pressure;BME280_temperature;BME280_humidity;BME280_pressure;Samples;Min_cycle;Max_cycle;Signal;HPM_P1;HPM_P2
2023/01/15 00:01:25;;;;;;;5.47;1.03;;;;;;;5.04;100.00;99782.97;5063419;28;20460;-83
2023/01/15 00:03:53;;;;;;;7.43;0.70;;;;;;;5.00;100.00;99776.34;5115628;28;20332;-84
2023/01/15 00:06:19;;;;;;;7.93;1.17;;;;;;;5.00;100.00;99770.97;5079587;28;20042;-84
2023/01/15 00:08:45;;;;;;;6.95;0.80;;;;;;;4.95;100.00;99772.66;5096634;28;20118;-85
2023/01/15 00:11:11;;;;;;;13.45;0.90;;;;;;;5.00;100.00;99772.84;5079485;28;20119;-84
2023/01/15 00:13:39;;;;;;;8.43;1.10;;;;;;;5.01;100.00;99777.19;5079494;28;20375;-84
2023/01/15 00:16:07;;;;;;;9.57;1.10;;;;;;;5.03;100.00;99767.88;5096022;28;20023;-85
2023/01/15 00:18:33;;;;;;;10.77;1.50;;;;;;;5.06;100.00;99767.47;5114916;28;20034;-84
2023/01/15 00:21:03;;;;;;;8.43;1.03;;;;;;;5.06;100.00;99766.63;5095515;28;20035;-84
2023/01/15 00:29:06;;;;;;;7.50;1.10;;;;;;;5.03;100.00;99767.88;5114262;28;20103;-84
2023/01/15 00:31:34;;;;;;;10.20;1.45;;;;;;;5.09;100.00;99771.59;5095956;28;20032;-84
2023/01/15 00:34:00;;;;;;;7.97;1.17;;;;;;;5.00;100.00;99762.91;5096226;28;20028;-85
2023/01/15 00:36:25;;;;;;;2.63;0.80;;;;;;;5.02;100.00;99760.00;5096038;28;20161;-84
2023/01/15 00:38:51;;;;;;;8.33;1.23;;;;;;;4.99;100.00;99755.03;5095539;28;20073;-84
2023/01/15 00:41:17;;;;;;;3.67;1.00;;;;;;;5.04;100.00;99752.59;5114664;28;20042;-85
2023/01/15 00:43:43;;;;;;;10.00;1.30;;;;;;;5.04;100.00;99760.66;5095808;28;20122;-83
2023/01/15 00:46:08;;;;;;;9.20;1.10;;;;;;;5.06;100.00;99769.31;5095686;28;20486;-84
2023/01/15 00:48:34;;;;;;;11.03;1.00;;;;;;;5.07;100.00;99773.69;5095633;28;20059;-84
2023/01/15 00:51:00;;;;;;;5.68;0.98;;;;;;;5.04;100.00;99782.16;5096141;28;20024;-84
2023/01/15 00:53:26;;;;;;;6.33;0.70;;;;;;;5.02;100.00;99771.63;5096673;28;20421;-84
2023/01/15 00:55:51;;;;;;;9.13;1.00;;;;;;;5.04;100.00;99780.28;5095987;28;20074;-84
2023/01/15 00:58:17;;;;;;;10.00;1.00;;;;;;;5.06;100.00;99789.00;5095653;28;20066;-84
2023/01/15 01:00:46;;;;;;;10.02;1.92;;;;;;;5.03;100.00;99777.81;5078901;28;20028;-85
2023/01/15 01:03:11;;;;;;;5.43;0.67;;;;;;;4.99;100.00;99776.56;5082882;28;20032;-85
2023/01/15 01:05:37;;;;;;;6.85;0.73;;;;;;;5.03;100.00;99792.06;5100041;28;20038;-85
2023/01/15 01:08:07;;;;;;;12.47;1.27;;;;;;;4.97;100.00;99795.56;5099594;28;20483;-85
2023/01/15 01:10:33;;;;;;;7.03;0.90;;;;;;;4.97;100.00;99792.06;5099697;28;20066;-85
2023/01/15 01:13:04;;;;;;;5.13;1.13;;;;;;;4.99;100.00;99782.78;5099253;28;20059;-85
2023/01/15 01:15:32;;;;;;;4.55;0.95;;;;;;;5.05;100.00;99776.56;5083427;28;20051;-84
2023/01/15 01:17:57;;;;;;;6.43;0.70;;;;;;;5.04;100.00;99785.66;5099382;28;20074;-85
2023/01/15 01:20:22;;;;;;;7.38;2.00;;;;;;;5.11;100.00;99791.06;5117631;28;20063;-85
2023/01/15 01:22:48;;;;;;;4.43;0.70;;;;;;;5.09;100.00;99782.34;5082488;28;20032;-85
2023/01/15 01:25:14;;;;;;;12.83;1.43;;;;;;;5.08;100.00;99792.28;5099572;28;20028;-85
2023/01/15 01:27:39;;;;;;;8.48;1.42;;;;;;;5.11;100.00;99785.69;5117268;28;20058;-85
2023/01/15 01:30:05;;;;;;;9.00;1.43;;;;;;;5.10;100.00;99774.09;5099210;28;20050;-84
2023/01/15 01:32:31;;;;;;;7.03;0.65;;;;;;;5.11;100.00;99780.31;5117347;28;20019;-85
2023/01/15 01:34:56;;;;;;;4.20;0.80;;;;;;;5.17;100.00;99781.34;5099163;28;20023;-85
2023/01/15 01:37:22;;;;;;;10.80;0.70;;;;;;;5.13;100.00;99791.66;5082442;28;20069;-85
2023/01/15 01:39:47;;;;;;;7.68;0.82;;;;;;;5.17;100.00;99790.22;5081793;28;20031;-84
2023/01/15 01:42:15;;;;;;;6.83;0.80;;;;;;;5.21;100.00;99785.25;5065341;28;20535;-84
2023/01/15 01:44:44;;;;;;;7.70;0.75;;;;;;;5.26;100.00;99796.25;5099246;28;20028;-84
2023/01/15 01:47:21;;;;;;;6.38;0.70;;;;;;;5.24;100.00;99798.28;5117204;28;20035;-85
2023/01/15 01:49:56;;;;;;;6.20;0.77;;;;;;;5.30;100.00;99802.88;5086185;28;20044;-85
2023/01/15 01:52:31;;;;;;;6.72;0.98;;;;;;;5.23;100.00;99775.97;5078875;28;20024;-85
2023/01/15 01:54:57;;;;;;;6.75;1.30;;;;;;;5.22;100.00;99776.16;5079413;28;20032;-85
2023/01/15 01:57:23;;;;;;;9.70;1.17;;;;;;;5.21;100.00;99794.16;5078437;28;20028;-85
2023/01/15 01:59:51;;;;;;;10.75;1.80;;;;;;;5.20;100.00;99787.13;5096477;28;20024;-84
2023/01/15 02:02:20;;;;;;;6.33;0.80;;;;;;;5.14;100.00;99781.72;5078171;28;20051;-85
2023/01/15 02:04:46;;;;;;;8.50;1.13;;;;;;;5.17;100.00;99784.84;5078688;28;20471;-84
2023/01/15 02:07:12;;;;;;;6.65;0.93;;;;;;;5.20;100.00;99786.31;5078107;28;20105;-84
2023/01/15 02:09:37;;;;;;;7.37;0.70;;;;;;;5.14;100.00;99782.59;5078392;28;20527;-85
2023/01/15 02:12:32;;;;;;;10.83;0.80;;;;;;;5.19;100.00;99800.78;5096445;28;20422;-85
2023/01/15 02:15:10;;;;;;;9.95;1.08;;;;;;;5.21;100.00;99801.41;5078226;28;20281;-85
2023/01/15 02:18:08;;;;;;;13.80;0.95;;;;;;;5.22;100.00;99792.31;5096823;28;20036;-85
2023/01/15 02:20:46;;;;;;;8.98;0.90;;;;;;;5.18;100.00;99797.28;5096624;28;20028;-85
2023/01/15 02:23:53;;;;;;;6.88;0.77;;;;;;;5.18;100.00;99786.53;5078301;28;20032;-85
2023/01/15 02:26:40;;;;;;;7.43;0.77;;;;;;;5.20;100.00;99810.50;5082573;28;20036;-85
2023/01/15 02:29:12;;;;;;;5.80;0.75;;;;;;;5.19;100.00;99784.66;5077957;28;20089;-84
2023/01/15 02:31:41;;;;;;;6.82;0.77;;;;;;;5.13;100.00;99767.47;5095741;28;20480;-84
2023/01/15 02:34:22;;;;;;;9.50;1.10;;;;;;;5.16;100.00;99777.00;5078064;28;20035;-85
2023/01/15 02:36:55;;;;;;;13.55;1.30;;;;;;;5.10;100.00;99759.81;5077447;28;20032;-85
2023/01/15 02:39:23;;;;;;;6.68;0.95;;;;;;;5.12;100.00;99760.44;5077485;28;20024;-84
2023/01/15 02:41:51;;;;;;;9.35;1.48;;;;;;;5.16;100.00;99774.31;5077608;28;20028;-85
2023/01/15 02:44:22;;;;;;;5.05;0.82;;;;;;;5.14;100.00;99779.03;5077689;28;20519;-85
2023/01/15 02:46:51;;;;;;;8.50;1.50;;;;;;;5.09;100.00;99774.28;5061235;28;20062;-85
2023/01/15 02:49:19;;;;;;;11.02;1.17;;;;;;;5.15;100.00;99757.31;5085378;28;20048;-85
2023/01/15 02:51:52;;;;;;;7.75;1.25;;;;;;;5.11;100.00;99769.56;5115728;28;20032;-85
2023/01/15 02:54:23;;;;;;;8.10;0.93;;;;;;;5.12;100.00;99765.00;5097480;28;20476;-84
2023/01/15 02:56:52;;;;;;;12.20;0.98;;;;;;;5.07;100.00;99752.97;5097904;28;20444;-84
2023/01/15 02:59:26;;;;;;;12.05;1.00;;;;;;;5.09;100.00;99753.63;5115501;28;20502;-85
2023/01/15 03:02:03;;;;;;;9.98;0.88;;;;;;;5.06;100.00;99747.81;5097809;28;20068;-85
2023/01/15 03:05:08;;;;;;;7.03;0.93;;;;;;;5.13;100.00;99763.97;5097855;28;20028;-85
2023/01/15 03:07:40;;;;;;;7.32;0.90;;;;;;;5.07;100.00;99755.69;5097778;28;20028;-85
2023/01/15 03:10:07;;;;;;;7.65;1.08;;;;;;;5.09;100.00;99758.16;5116133;28;20039;-85
2023/01/15 03:13:01;;;;;;;6.45;0.70;;;;;;;5.05;100.00;99771.19;5096934;28;20028;-85
2023/01/15 03:18:42;;;;;;;9.18;0.70;;;;;;;5.06;100.00;99767.47;5115761;28;20494;-85
2023/01/15 03:21:12;;;;;;;8.73;1.00;;;;;;;5.07;100.00;99771.00;5097197;28;20063;-85
2023/01/15 03:23:41;;;;;;;8.85;1.38;;;;;;;5.10;100.00;99759.81;5115865;28;20027;-85
2023/01/15 03:26:06;;;;;;;12.15;1.25;;;;;;;5.08;100.00;99753.84;5095817;28;20390;-85
2023/01/15 03:28:36;;;;;;;8.07;0.93;;;;;;;5.11;100.00;99764.16;5097294;28;20099;-87
2023/01/15 03:31:09;;;;;;;10.77;1.05;;;;;;;5.10;100.00;99754.44;5096586;28;20104;-85
2023/01/15 03:33:35;;;;;;;8.77;0.90;;;;;;;5.08;100.00;99753.84;5097430;28;20114;-85
2023/01/15 03:36:03;;;;;;;10.60;0.90;;;;;;;5.11;100.00;99758.78;5096931;28;20130;-85
2023/01/15 03:38:34;;;;;;;7.53;0.95;;;;;;;5.08;100.00;99754.66;5097552;28;20028;-85
2023/01/15 03:41:29;;;;;;;8.35;0.93;;;;;;;5.22;100.00;99760.84;5097065;28;20037;-85
2023/01/15 03:44:29;;;;;;;6.47;0.87;;;;;;;5.22;100.00;99760.03;5096528;28;20039;-85
2023/01/15 03:46:54;;;;;;;10.73;1.25;;;;;;;5.21;100.00;99767.28;5096329;28;20055;-85
2023/01/15 03:49:57;;;;;;;6.30;0.70;;;;;;;5.25;100.00;99797.25;5114857;28;20475;-85
2023/01/15 03:52:31;;;;;;;9.98;0.90;;;;;;;5.32;100.00;99755.06;5096973;28;20431;-85
2023/01/15 03:55:06;;;;;;;10.38;1.00;;;;;;;5.27;100.00;99768.31;5097121;28;20081;-85
2023/01/15 03:57:52;;;;;;;7.80;1.35;;;;;;;5.33;100.00;99767.50;5114871;28;20054;-85
2023/01/15 04:00:21;;;;;;;11.38;0.70;;;;;;;5.35;100.00;99772.66;5114405;28;20076;-85
2023/01/15 04:02:56;;;;;;;15.27;1.10;;;;;;;5.30;100.00;99773.28;5114627;28;20027;-85
2023/01/15 04:05:26;;;;;;;9.75;0.98;;;;;;;5.31;100.00;99766.03;5096407;28;20035;-85
2023/01/15 04:07:53;;;;;;;5.60;0.77;;;;;;;5.34;100.00;99750.28;5114728;28;20053;-85
2023/01/15 04:10:24;;;;;;;10.27;1.08;;;;;;;5.31;100.00;99756.09;5095632;28;20027;-85
2023/01/15 04:12:49;;;;;;;8.32;0.73;;;;;;;5.27;100.00;99753.00;5096605;28;20456;-85
2023/01/15 04:15:18;;;;;;;9.63;1.50;;;;;;;5.21;100.00;99761.91;5096204;28;20033;-85
2023/01/15 04:17:44;;;;;;;13.80;2.15;;;;;;;5.22;100.00;99766.22;5095854;28;20042;-85
2023/01/15 04:20:14;;;;;;;6.77;0.93;;;;;;;5.23;100.00;99757.13;5079264;28;20028;-85
2023/01/15 04:22:39;;;;;;;9.10;0.88;;;;;;;5.24;100.00;99757.94;5096146;28;20024;-84
2023/01/15 04:25:06;;;;;;;7.97;0.90;;;;;;;5.20;100.00;99757.56;5096084;28;20028;-85
2023/01/15 04:27:31;;;;;;;6.22;0.98;;;;;;;5.31;100.00;99758.78;5095944;28;20478;-85
2023/01/15 04:29:57;;;;;;;11.10;0.97;;;;;;;5.19;100.00;99742.44;5095660;28;20059;-85
2023/01/15 04:32:22;;;;;;;9.98;0.90;;;;;;;5.13;100.00;99748.66;5096055;28;20115;-85
2023/01/15 04:34:49;;;;;;;9.70;0.80;;;;;;;5.13;100.00;99758.59;5095980;28;20031;-85
2023/01/15 04:37:15;;;;;;;8.02;0.68;;;;;;;5.08;100.00;99751.97;5096363;28;20055;-85
2023/01/15 04:39:43;;;;;;;14.70;1.58;;;;;;;5.10;100.00;99755.25;5095502;28;20034;-85
2023/01/15 04:44:57;;;;;;;9.15;0.70;;;;;;;5.07;100.00;99769.13;5114730;28;20452;-85
2023/01/15 04:47:25;;;;;;;8.70;0.93;;;;;;;5.10;100.00;99782.16;5113665;28;20035;-85
2023/01/15 04:49:50;;;;;;;6.97;0.98;;;;;;;5.13;100.00;99766.66;5113527;28;20104;-85
2023/01/15 04:52:33;;;;;;;9.85;1.02;;;;;;;5.16;100.00;99779.69;5095474;28;20019;-85
2023/01/15 04:55:01;;;;;;;13.10;1.13;;;;;;;5.14;100.00;99779.91;5096047;28;20027;-85
2023/01/15 04:57:35;;;;;;;5.70;0.70;;;;;;;5.15;100.00;99796.84;5095899;28;20024;-85
2023/01/15 05:00:10;;;;;;;10.13;1.17;;;;;;;5.17;100.00;99792.09;5079798;28;20055;-85
2023/01/15 05:02:36;;;;;;;8.68;0.77;;;;;;;5.16;100.00;99782.38;5096404;28;20031;-85
2023/01/15 05:05:09;;;;;;;8.70;0.87;;;;;;;5.08;100.00;99770.78;5095600;28;20076;-85
2023/01/15 05:07:34;;;;;;;7.78;1.13;;;;;;;5.12;100.00;99776.56;5095593;28;20024;-85
2023/01/15 05:10:02;;;;;;;10.93;1.57;;;;;;;5.16;100.00;99779.69;5113583;28;20031;-86
2023/01/15 05:12:27;;;;;;;10.23;1.20;;;;;;;5.12;100.00;99765.00;5113951;28;20032;-85
2023/01/15 05:14:53;;;;;;;7.43;1.03;;;;;;;5.12;100.00;99778.44;5078714;28;20092;-85
2023/01/15 05:17:18;;;;;;;7.90;0.93;;;;;;;5.12;100.00;99779.25;5096286;28;20035;-85
2023/01/15 05:19:44;;;;;;;12.03;0.93;;;;;;;5.16;100.00;99772.44;5095392;28;20042;-84
2023/01/15 05:22:09;;;;;;;8.33;0.80;;;;;;;5.21;100.00;99769.97;5095499;28;20028;-85
2023/01/15 05:24:35;;;;;;;8.80;1.13;;;;;;;5.19;100.00;99769.31;5113365;28;20030;-85
2023/01/15 05:27:05;;;;;;;6.90;0.90;;;;;;;5.16;100.00;99759.00;5078531;28;20048;-85
2023/01/15 05:29:31;;;;;;;10.35;1.27;;;;;;;5.12;100.00;99760.44;5062218;28;20032;-85
2023/01/15 05:31:56;;;;;;;6.70;0.97;;;;;;;5.14;100.00;99762.91;5095434;28;20027;-85
2023/01/15 05:34:22;;;;;;;10.93;0.87;;;;;;;5.21;99.71;99752.97;5095077;28;20038;-85
2023/01/15 05:36:48;;;;;;;9.60;0.82;;;;;;;5.22;100.00;99755.47;5095404;28;20028;-85
2023/01/15 05:39:13;;;;;;;3.63;0.53;;;;;;;5.23;100.00;99750.94;5095708;28;20063;-85
2023/01/15 05:41:48;;;;;;;11.20;1.42;;;;;;;5.19;100.00;99755.88;5095541;28;20378;-85
2023/01/15 05:44:16;;;;;;;11.10;1.00;;;;;;;5.21;100.00;99753.84;5079730;28;20093;-85
2023/01/15 05:46:43;;;;;;;5.20;1.00;;;;;;;5.16;100.00;99750.91;5095196;28;20125;-85
2023/01/15 05:49:11;;;;;;;7.55;0.90;;;;;;;5.12;100.00;99751.53;5090027;28;20106;-85
2023/01/15 05:51:38;;;;;;;10.57;1.25;;;;;;;5.06;100.00;99750.50;5078623;28;20036;-85
2023/01/15 05:54:10;;;;;;;9.45;0.85;;;;;;;5.08;100.00;99759.22;5078680;28;20028;-85
2023/01/15 05:56:37;;;;;;;10.97;1.00;;;;;;;5.10;100.00;99749.88;5079393;28;20055;-85
2023/01/15 05:59:05;;;;;;;15.45;1.25;;;;;;;5.08;100.00;99735.81;5078232;28;20028;-85
2023/01/15 06:01:41;;;;;;;5.22;1.02;;;;;;;5.13;100.00;99753.22;5078394;28;20495;-86
2023/01/15 06:04:16;;;;;;;7.25;0.95;;;;;;;5.13;100.00;99745.16;5061549;28;20036;-86
2023/01/15 06:06:42;;;;;;;9.32;1.30;;;;;;;5.12;100.00;99749.66;5078444;28;20032;-86
2023/01/15 06:09:08;;;;;;;13.10;1.20;;;;;;;5.15;100.00;99760.00;5078561;28;20118;-85
2023/01/15 06:11:34;;;;;;;12.38;1.73;;;;;;;5.18;100.00;99742.66;5077961;28;20115;-85
2023/01/15 06:13:59;;;;;;;12.52;1.50;;;;;;;5.22;100.00;99754.66;5096750;28;20077;-85
2023/01/15 06:16:25;;;;;;;13.13;1.07;;;;;;;5.26;100.00;99766.66;5078018;28;20036;-85
2023/01/15 06:18:51;;;;;;;10.48;1.00;;;;;;;5.23;100.00;99780.53;5078278;28;20054;-85
2023/01/15 06:21:17;;;;;;;5.07;0.80;;;;;;;5.24;100.00;99774.94;5078006;28;20528;-85
2023/01/15 06:23:43;;;;;;;8.52;0.90;;;;;;;5.24;100.00;99785.69;5078231;28;20020;-85
2023/01/15 06:26:16;;;;;;;9.53;0.90;;;;;;;5.18;100.00;99791.91;5078744;28;20032;-85
2023/01/15 06:28:43;;;;;;;13.90;2.00;;;;;;;5.12;100.00;99778.44;5078067;28;20390;-85
2023/01/15 06:31:12;;;;;;;9.43;0.88;;;;;;;5.06;100.00;99783.63;5061270;28;20032;-84
2023/01/15 06:33:38;;;;;;;9.85;1.42;;;;;;;5.20;100.00;99767.50;5077708;28;20064;-84
2023/01/15 06:36:15;;;;;;;6.93;0.70;;;;;;;5.10;100.00;99790.22;5062166;28;20469;-89
2023/01/15 06:38:56;;;;;;;7.72;0.95;;;;;;;5.13;100.00;99777.41;5063014;28;20074;-89
2023/01/15 06:47:29;;;;;;;;;;;;;;;;;;;;;
2023/01/15 06:50:07;;;;;;;7.30;0.90;;;;;;;4.92;100.00;99772.00;5109419;28;20483;-89
2023/01/15 06:52:37;;;;;;;14.65;1.00;;;;;;;4.96;100.00;99782.34;5098371;28;20379;-87
2023/01/15 06:55:05;;;;;;;8.13;0.80;;;;;;;4.82;100.00;99773.44;5097802;28;20028;-84
2023/01/15 06:57:31;;;;;;;7.35;0.65;;;;;;;4.80;100.00;99794.28;5097926;28;20031;-86
2023/01/15 06:59:56;;;;;;;6.90;1.00;;;;;;;4.74;100.00;99779.84;5096873;28;20024;-86
2023/01/15 07:02:26;;;;;;;5.83;0.57;;;;;;;4.75;100.00;99786.84;5097208;28;20122;-87
2023/01/15 07:04:52;;;;;;;10.77;0.80;;;;;;;4.71;100.00;99801.72;5097880;28;20059;-86
2023/01/15 07:07:24;;;;;;;8.10;0.90;;;;;;;4.64;100.00;99796.34;5097551;28;20118;-87
2023/01/15 07:09:52;;;;;;;11.52;1.08;;;;;;;4.63;100.00;99789.28;5097319;28;20028;-87
2023/01/15 07:12:18;;;;;;;10.35;0.90;;;;;;;4.63;100.00;99772.38;5096984;28;20036;-86
2023/01/15 07:14:47;;;;;;;6.50;0.70;;;;;;;4.63;100.00;99783.94;5097621;28;20030;-87
2023/01/15 07:17:15;;;;;;;6.38;0.85;;;;;;;4.70;100.00;99792.03;5096729;28;20080;-87
2023/01/15 07:19:43;;;;;;;8.18;0.70;;;;;;;4.73;100.00;99799.66;5097396;28;20452;-86
2023/01/15 07:22:14;;;;;;;9.75;0.90;;;;;;;4.78;100.00;99796.38;5115222;28;20129;-85
2023/01/15 07:24:39;;;;;;;7.93;0.77;;;;;;;4.73;100.00;99795.13;5097371;28;20040;-86
2023/01/15 07:27:08;;;;;;;9.23;1.00;;;;;;;4.71;100.00;99809.78;5115650;28;20050;-87
2023/01/15 07:29:33;;;;;;;6.55;0.60;;;;;;;4.76;100.00;99812.69;5096004;28;20085;-87
2023/01/15 07:32:01;;;;;;;7.53;0.90;;;;;;;4.80;100.00;99810.41;5115665;28;20031;-84
2023/01/15 07:34:27;;;;;;;4.68;0.88;;;;;;;4.85;99.27;99814.16;5079616;28;20039;-85
2023/01/15 07:36:52;;;;;;;9.23;0.73;;;;;;;4.92;98.69;99801.56;5096654;28;20027;-85
2023/01/15 07:39:18;;;;;;;3.43;0.67;;;;;;;4.93;98.46;99818.50;5097561;28;20028;-85
2023/01/15 07:50:10;;;;;;;6.88;0.75;;;;;;;4.94;97.62;99822.88;5115242;28;20101;-86
2023/01/15 07:52:39;;;;;;;6.72;0.75;;;;;;;4.98;97.43;99848.31;5114853;28;20042;-85
2023/01/15 07:55:29;;;;;;;7.03;0.63;;;;;;;4.95;96.94;99843.34;5096163;28;20035;-86
2023/01/15 07:57:57;;;;;;;5.67;0.80;;;;;;;4.93;97.47;99837.34;5114455;28;20118;-85
2023/01/15 08:00:26;;;;;;;2.78;0.50;;;;;;;4.88;96.99;99872.88;5095926;28;20030;-85
2023/01/15 08:02:52;;;;;;;7.50;1.05;;;;;;;4.83;96.50;99835.06;5096505;28;20039;-84
2023/01/15 08:05:20;;;;;;;5.93;1.07;;;;;;;4.83;95.89;99840.44;5096184;28;20113;-85
2023/01/15 08:07:53;;;;;;;5.32;0.98;;;;;;;4.78;95.09;99836.69;5095976;28;20500;-85
2023/01/15 08:10:24;;;;;;;6.75;0.68;;;;;;;4.85;95.87;99814.16;5114666;28;20032;-85
2023/01/15 08:15:39;;;;;;;7.78;0.85;;;;;;;4.61;96.10;99830.84;5115047;28;20130;-85
2023/01/15 08:18:07;;;;;;;4.00;0.63;;;;;;;4.54;95.81;99841.56;5079025;28;20041;-85
2023/01/15 08:20:36;;;;;;;6.85;0.73;;;;;;;4.46;96.40;99845.25;5096431;28;20039;-85
2023/01/15 08:23:12;;;;;;;;;;;;;;;;;;;;;
2023/01/15 08:25:37;;;;;;;8.25;0.75;;;;;;;4.37;96.38;99855.34;5114353;28;20034;-86
2023/01/15 08:28:03;;;;;;;8.23;0.90;;;;;;;4.31;97.50;99847.22;5095956;28;20114;-85
2023/01/15 08:30:31;;;;;;;6.93;0.87;;;;;;;4.36;97.23;99850.97;5095919;28;20027;-84
2023/01/15 08:33:01;;;;;;;7.28;0.65;;;;;;;4.30;97.92;99842.91;5113816;28;20039;-85
2023/01/15 08:35:29;;;;;;;8.93;0.70;;;;;;;4.34;97.10;99839.63;5114665;28;20199;-85
2023/01/15 08:37:55;;;;;;;4.07;0.50;;;;;;;4.37;97.08;99835.69;5078300;28;20074;-85
2023/01/15 08:40:20;;;;;;;10.63;1.20;;;;;;;4.35;97.51;99843.94;5079030;28;20063;-85
2023/01/15 08:42:51;;;;;;;6.60;0.77;;;;;;;4.36;97.74;99848.31;5114082;28;20486;-86
2023/01/15 08:45:22;;;;;;;6.40;0.70;;;;;;;4.33;97.51;99854.06;5096067;28;20028;-86
2023/01/15 08:47:58;;;;;;;5.60;0.60;;;;;;;4.34;97.98;99830.72;5096023;28;20044;-86
2023/01/15 08:50:24;;;;;;;9.93;0.65;;;;;;;4.44;96.87;99860.72;5095710;28;20036;-85
2023/01/15 08:52:51;;;;;;;7.97;0.50;;;;;;;4.39;97.47;99847.06;5095587;28;20464;-85
2023/01/15 08:55:20;;;;;;;6.18;1.05;;;;;;;4.38;98.08;99835.53;5095750;28;20395;-85
2023/01/15 08:57:48;;;;;;;3.67;1.00;;;;;;;4.41;98.12;99842.31;5096480;28;20032;-85
2023/01/15 09:00:14;;;;;;;4.05;0.55;;;;;;;4.35;98.81;99837.75;5095777;28;20035;-86
2023/01/15 09:02:44;;;;;;;4.93;0.80;;;;;;;4.47;97.93;99843.38;5096067;28;20054;-88
2023/01/15 09:05:12;;;;;;;6.97;1.00;;;;;;;4.47;97.96;99825.41;5096092;28;20371;-85
2023/01/15 09:07:40;;;;;;;5.88;0.90;;;;;;;4.52;97.29;99822.97;5095270;28;20035;-85
2023/01/15 09:10:06;;;;;;;7.55;0.65;;;;;;;4.56;98.04;99812.63;5078641;28;20119;-85
2023/01/15 09:12:34;;;;;;;6.43;0.90;;;;;;;4.55;97.99;99824.44;5095308;28;20032;-85
2023/01/15 09:15:03;;;;;;;8.80;0.90;;;;;;;4.63;97.35;99808.09;5095568;28;20486;-85
2023/01/15 09:17:30;;;;;;;6.78;0.50;;;;;;;4.66;98.03;99810.38;5095439;28;20391;-85
2023/01/15 09:19:55;;;;;;;9.13;0.60;;;;;;;4.69;97.42;99823.41;5095067;28;20073;-85
2023/01/15 09:22:26;;;;;;;5.10;0.80;;;;;;;4.81;96.64;99810.22;5095273;28;20394;-85
2023/01/15 09:24:55;;;;;;;5.68;0.50;;;;;;;4.85;96.12;99813.34;5098726;28;20277;-85
2023/01/15 09:27:20;;;;;;;7.05;0.68;;;;;;;4.88;96.33;99834.44;5100163;28;20034;-85
2023/01/15 09:29:48;;;;;;;6.57;0.63;;;;;;;4.94;96.52;99827.44;5100063;28;20102;-85
2023/01/15 09:32:14;;;;;;;5.97;0.85;;;;;;;5.04;95.99;99822.47;5117616;28;20059;-85
2023/01/15 09:34:39;;;;;;;9.02;0.90;;;;;;;5.20;94.38;99832.03;5099218;28;20114;-85
2023/01/15 09:37:08;;;;;;;12.75;1.15;;;;;;;5.23;94.66;99789.41;5099204;28;20459;-85
2023/01/15 09:39:37;;;;;;;9.15;0.93;;;;;;;5.31;94.99;99823.34;5117332;28;20024;-85
2023/01/15 09:42:23;;;;;;;6.67;0.80;;;;;;;5.51;93.47;99834.13;5098738;28;20019;-86
2023/01/15 09:44:58;;;;;;;3.40;0.70;;;;;;;5.58;93.29;99832.25;5099018;28;20429;-85
2023/01/15 09:47:35;;;;;;;5.03;1.20;;;;;;;5.54;92.51;99851.72;5098701;28;20115;-86
2023/01/15 09:50:33;;;;;;;5.68;1.20;;;;;;;5.48;92.29;99844.44;5099070;28;20048;-84
2023/01/15 09:53:15;;;;;;;8.98;0.85;;;;;;;5.46;91.56;99836.56;5099140;28;20482;-85
2023/01/15 09:55:47;;;;;;;7.87;0.90;;;;;;;5.49;90.19;99841.53;5099118;28;20044;-86
2023/01/15 09:58:15;;;;;;;8.35;0.85;;;;;;;5.45;90.81;99845.72;5098762;28;20092;-85
2023/01/15 10:00:52;;;;;;;9.18;0.70;;;;;;;5.51;90.37;99854.81;5099210;28;20035;-85
2023/01/15 10:03:30;;;;;;;9.70;1.30;;;;;;;5.58;90.00;99871.78;5098882;28;20432;-86
2023/01/15 10:06:26;;;;;;;;;;;;;;;;;;;;;
2023/01/15 10:09:21;;;;;;;8.17;1.03;;;;;;;5.60;89.13;99854.38;5107050;28;20044;-85
2023/01/15 10:15:14;;;;;;;6.47;0.82;;;;;;;5.69;89.38;99884.63;5117474;28;20556;-83
2023/01/15 10:17:56;;;;;;;4.30;0.70;;;;;;;5.73;87.89;99856.25;5098615;28;20473;-83
2023/01/15 10:20:55;;;;;;;6.07;0.90;;;;;;;5.77;88.18;99884.41;5116706;28;20449;-83
2023/01/15 10:23:39;;;;;;;4.13;1.00;;;;;;;5.84;87.13;99845.91;5098290;28;20028;-83
2023/01/15 10:26:27;;;;;;;4.28;0.95;;;;;;;5.95;87.11;99886.47;5098789;28;20086;-84
2023/01/15 10:28:56;;;;;;;9.48;1.20;;;;;;;5.89;87.48;99852.31;5103259;28;20040;-84
2023/01/15 10:31:36;;;;;;;8.25;0.82;;;;;;;5.91;87.75;99862.88;5116038;28;20027;-84
2023/01/15 10:34:14;;;;;;;8.02;0.88;;;;;;;5.94;87.48;99879.44;5097427;28;20069;-83
2023/01/15 10:36:43;;;;;;;6.07;0.80;;;;;;;6.07;87.89;99893.97;5115942;28;20050;-84
2023/01/15 10:39:47;;;;;;;8.93;0.80;;;;;;;6.11;86.98;99866.41;5116230;28;20031;-84
2023/01/15 10:42:21;;;;;;;7.28;0.88;;;;;;;6.18;85.62;99868.25;5036383;28;20454;-84
2023/01/15 10:45:17;;;;;;;7.65;0.85;;;;;;;6.20;86.18;99887.69;5037001;28;20037;-84
2023/01/15 10:47:47;;;;;;;6.38;0.88;;;;;;;6.26;84.82;99862.63;5080844;28;20040;-83
2023/01/15 10:50:22;;;;;;;7.47;0.97;;;;;;;6.46;85.79;99878.72;5097786;28;20472;-84
2023/01/15 10:53:16;;;;;;;7.45;0.68;;;;;;;6.60;85.12;99833.69;5115507;28;20375;-84
2023/01/15 10:55:48;;;;;;;3.17;0.47;;;;;;;6.56;84.18;99864.81;5116249;28;20055;-84
2023/01/15 10:58:29;;;;;;;11.98;1.10;;;;;;;6.43;83.64;99849.53;5098118;28;20069;-83
2023/01/15 11:01:01;;;;;;;9.30;1.13;;;;;;;6.36;83.82;99838.75;5097270;28;20042;-84
2023/01/15 11:03:38;;;;;;;4.93;0.83;;;;;;;6.46;83.00;99822.16;5097830;28;20043;-83
2023/01/15 11:06:10;;;;;;;10.27;1.10;;;;;;;6.41;83.28;99847.03;5097724;28;20376;-83
2023/01/15 11:08:36;;;;;;;5.78;0.70;;;;;;;6.52;82.69;99842.84;5115753;28;20077;-84
2023/01/15 11:11:21;;;;;;;7.10;1.23;;;;;;;6.44;83.47;99843.91;5115320;28;20414;-84
2023/01/15 11:19:40;;;;;;;3.63;0.60;;;;;;;6.55;83.36;99858.59;5099490;28;20374;-84
2023/01/15 11:22:17;;;;;;;5.50;0.60;;;;;;;6.82;82.96;99888.13;5097196;28;20096;-84
2023/01/15 11:24:50;;;;;;;2.15;0.50;;;;;;;7.03;81.58;99857.34;5097417;28;20023;-84
2023/01/15 11:27:19;;;;;;;1.70;0.80;;;;;;;6.93;80.51;99859.69;5096987;28;20479;-84
2023/01/15 11:29:57;;;;;;;4.32;0.60;;;;;;;6.92;81.01;99858.00;5096947;28;20028;-84
2023/01/15 11:32:34;;;;;;;8.55;0.60;;;;;;;6.87;81.15;99868.63;5115026;28;20038;-85
2023/01/15 11:35:03;;;;;;;2.72;0.55;;;;;;;6.88;80.80;99854.94;5097056;28;20024;-85
2023/01/15 11:37:46;;;;;;;3.45;0.30;;;;;;;6.85;81.03;99852.69;5096337;28;20039;-84
2023/01/15 11:40:23;;;;;;;3.80;0.40;;;;;;;6.84;81.08;99881.50;5080145;28;20123;-84
2023/01/15 11:51:40;;;;;;;2.25;0.60;;;;;;;6.92;79.60;99872.31;5114898;28;20132;-85
2023/01/15 11:54:11;;;;;;;3.63;0.50;;;;;;;6.95;80.26;99888.09;5096294;28;20094;-85
2023/01/15 11:56:41;;;;;;;6.85;1.25;;;;;;;6.90;80.68;99868.19;5096813;28;20452;-85
2023/01/15 11:59:13;;;;;;;4.63;0.60;;;;;;;7.03;79.47;99858.16;5096289;28;20051;-85
2023/01/15 12:01:58;;;;;;;7.25;1.30;;;;;;;6.90;80.78;99858.22;5096015;28;20039;-85
2023/01/15 12:04:53;;;;;;;2.30;0.50;;;;;;;6.85;82.18;99866.16;5096475;28;20356;-85
2023/01/15 12:07:23;;;;;;;4.50;0.70;;;;;;;6.84;80.05;99861.78;5096222;28;20019;-85
2023/01/15 12:10:12;;;;;;;3.30;0.57;;;;;;;6.71;80.70;99861.84;5096185;28;20080;-86
2023/01/15 12:12:40;;;;;;;5.50;1.02;;;;;;;6.58;81.05;99871.63;5114798;28;20019;-85
2023/01/15 12:15:19;;;;;;;9.15;0.50;;;;;;;6.52;82.03;99847.41;5096141;28;20028;-85
2023/01/15 12:17:53;;;;;;;4.80;0.50;;;;;;;6.62;81.91;99878.25;5095995;28;20060;-86
2023/01/15 12:20:43;;;;;;;4.10;0.40;;;;;;;6.57;82.85;99844.91;5095945;28;20024;-85
2023/01/15 12:23:31;;;;;;;4.72;0.60;;;;;;;6.52;83.55;99902.13;5095916;28;20110;-86
2023/01/15 12:26:27;;;;;;;2.15;0.60;;;;;;;6.41;83.46;99865.09;5113939;28;20067;-86
2023/01/15 12:29:15;;;;;;;5.10;0.80;;;;;;;6.48;83.68;99844.31;5095767;28;20024;-85
2023/01/15 12:31:45;;;;;;;3.20;0.60;;;;;;;6.42;83.13;99846.00;5095645;28;20039;-85
2023/01/15 12:34:44;;;;;;;4.67;0.73;;;;;;;6.43;83.37;99839.56;5096169;28;20024;-85
2023/01/15 12:37:19;;;;;;;2.42;0.55;;;;;;;6.33;82.91;99833.78;5095603;28;20070;-85
2023/01/15 12:39:53;;;;;;;9.65;0.77;;;;;;;6.37;83.60;99843.13;5095747;28;20030;-85
2023/01/15 12:45:32;;;;;;;2.72;0.57;;;;;;;7.73;78.58;99838.34;5114085;28;20041;-85
2023/01/15 12:48:38;;;;;;;3.87;0.77;;;;;;;7.32;78.18;99853.22;5096040;28;20028;-86
2023/01/15 12:51:05;;;;;;;4.20;0.60;;;;;;;6.82;80.29;99839.59;5095297;28;20079;-86